JBU1162 KMEM-KMCO
Flight info
| Callsign | JBU1162 |
|---|---|
| Flight time | 1h 38m |
| Altitude | 36000 |
| Route | BBKNG7 KERMI DCT VLKNN DCT DEEDA GRNCH5 |
| Aircraft | A320/M-SDE3FGHIRWY/LB1 |
Departure
| Time | 2026-04-21 23:59 |
|---|---|
| Airport | Memphis International Airport (KMEM) |
Arrival
| Time | 2026-04-22 01:37 |
|---|---|
| Airport | Orlando International Airport (KMCO) |
| Time | Latitude | Longitude | Altitude | Speed | Heading |
|---|---|---|---|---|---|
| 2026-04-21 23:23 | 35.04362 | -89.98008 | 314 ft | 0 kts | 98° |
| 2026-04-21 23:48 | 35.04362 | -89.98010 | 313 ft | 3 kts | 98° |
| 2026-04-21 23:48 | 35.04364 | -89.98032 | 311 ft | 3 kts | 109° |
| 2026-04-21 23:48 | 35.04366 | -89.98039 | 311 ft | 0 kts | 136° |
| 2026-04-21 23:52 | 35.04356 | -89.98038 | 312 ft | 7 kts | 176° |
| 2026-04-21 23:53 | 35.04293 | -89.98055 | 312 ft | 11 kts | 191° |
| 2026-04-21 23:53 | 35.04223 | -89.98013 | 312 ft | 12 kts | 140° |
| 2026-04-21 23:53 | 35.04191 | -89.97922 | 314 ft | 13 kts | 91° |
| 2026-04-21 23:53 | 35.04194 | -89.97813 | 315 ft | 13 kts | 89° |
| 2026-04-21 23:54 | 35.04245 | -89.97741 | 316 ft | 14 kts | 3° |
| 2026-04-21 23:54 | 35.04347 | -89.97745 | 316 ft | 16 kts | 359° |
| 2026-04-21 23:54 | 35.04370 | -89.97746 | 316 ft | 7 kts | 359° |
| 2026-04-21 23:54 | 35.04450 | -89.97748 | 317 ft | 13 kts | 359° |
| 2026-04-21 23:55 | 35.04543 | -89.97748 | 316 ft | 15 kts | 1° |
| 2026-04-21 23:55 | 35.04658 | -89.97752 | 313 ft | 18 kts | 5° |
| 2026-04-21 23:55 | 35.04792 | -89.97753 | 313 ft | 20 kts | 359° |
| 2026-04-21 23:55 | 35.04936 | -89.97756 | 314 ft | 21 kts | 359° |
| 2026-04-21 23:56 | 35.05089 | -89.97760 | 315 ft | 23 kts | 359° |
| 2026-04-21 23:56 | 35.05247 | -89.97764 | 320 ft | 22 kts | 359° |
| 2026-04-21 23:56 | 35.05360 | -89.97777 | 323 ft | 15 kts | 351° |
| 2026-04-21 23:56 | 35.05441 | -89.97741 | 323 ft | 8 kts | 66° |
| 2026-04-21 23:57 | 35.05444 | -89.97728 | 325 ft | 1 kts | 76° |
| 2026-04-21 23:57 | 35.05445 | -89.97721 | 324 ft | 0 kts | 78° |
| 2026-04-21 23:57 | 35.05446 | -89.97718 | 326 ft | 1 kts | 78° |
| 2026-04-21 23:57 | 35.05446 | -89.97707 | 326 ft | 2 kts | 85° |
| 2026-04-21 23:58 | 35.05441 | -89.97655 | 325 ft | 10 kts | 108° |
| 2026-04-21 23:58 | 35.05382 | -89.97613 | 324 ft | 12 kts | 172° |
| 2026-04-21 23:58 | 35.05280 | -89.97612 | 323 ft | 24 kts | 181° |
| 2026-04-21 23:58 | 35.04824 | -89.97608 | 315 ft | 108 kts | 180° |
| 2026-04-21 23:59 | 35.03845 | -89.97588 | 394 ft | 164 kts | 179° |
| 2026-04-21 23:59 | 35.02700 | -89.97523 | 1253 ft | 166 kts | 177° |
| 2026-04-21 23:59 | 35.01530 | -89.97419 | 2132 ft | 171 kts | 180° |
| 2026-04-21 23:59 | 35.00333 | -89.97279 | 3024 ft | 175 kts | 179° |
| 2026-04-22 00:00 | 34.99059 | -89.97112 | 3718 ft | 192 kts | 173° |
| 2026-04-22 00:00 | 34.97786 | -89.96286 | 4283 ft | 230 kts | 139° |
| 2026-04-22 00:00 | 34.96913 | -89.94492 | 4924 ft | 267 kts | 114° |
| 2026-04-22 00:00 | 34.96371 | -89.92197 | 5536 ft | 295 kts | 108° |
| 2026-04-22 00:01 | 34.95848 | -89.89683 | 6157 ft | 316 kts | 108° |
| 2026-04-22 00:01 | 34.95299 | -89.87026 | 6815 ft | 332 kts | 108° |
| 2026-04-22 00:01 | 34.94716 | -89.84238 | 7435 ft | 347 kts | 108° |
| 2026-04-22 00:01 | 34.94108 | -89.81332 | 8146 ft | 361 kts | 108° |
| 2026-04-22 00:02 | 34.93467 | -89.78313 | 8859 ft | 375 kts | 108° |
| 2026-04-22 00:02 | 34.92932 | -89.75188 | 9574 ft | 390 kts | 100° |
| 2026-04-22 00:02 | 34.92764 | -89.71894 | 10277 ft | 376 kts | 94° |
| 2026-04-22 00:02 | 34.92700 | -89.68852 | 10931 ft | 348 kts | 94° |
| 2026-04-22 00:03 | 34.92631 | -89.65916 | 11611 ft | 347 kts | 94° |
| 2026-04-22 00:03 | 34.92549 | -89.62914 | 12330 ft | 361 kts | 93° |
| 2026-04-22 00:03 | 34.92450 | -89.59846 | 13047 ft | 363 kts | 94° |
| 2026-04-22 00:03 | 34.92336 | -89.56786 | 13849 ft | 361 kts | 94° |
| 2026-04-22 00:04 | 34.92209 | -89.53716 | 14495 ft | 363 kts | 93° |
| 2026-04-22 00:04 | 34.92065 | -89.50649 | 15185 ft | 362 kts | 93° |
| 2026-04-22 00:04 | 34.91906 | -89.47586 | 15871 ft | 363 kts | 94° |
| 2026-04-22 00:04 | 34.91731 | -89.44471 | 16161 ft | 376 kts | 94° |
| 2026-04-22 00:05 | 34.91540 | -89.41219 | 16246 ft | 394 kts | 94° |
| 2026-04-22 00:05 | 34.91342 | -89.37805 | 16259 ft | 413 kts | 94° |
| 2026-04-22 00:05 | 34.91133 | -89.34232 | 16259 ft | 432 kts | 94° |
| 2026-04-22 00:05 | 34.90751 | -89.30541 | 16258 ft | 447 kts | 98° |
| 2026-04-22 00:06 | 34.90271 | -89.26738 | 16268 ft | 460 kts | 98° |
| 2026-04-22 00:06 | 34.89790 | -89.22937 | 17072 ft | 440 kts | 98° |
| 2026-04-22 00:06 | 34.89327 | -89.19288 | 17825 ft | 435 kts | 98° |
| 2026-04-22 00:06 | 34.88874 | -89.15735 | 19102 ft | 416 kts | 98° |
| 2026-04-22 00:07 | 34.88584 | -89.13468 | 19891 ft | 406 kts | 98° |
| 2026-04-22 00:07 | 34.88019 | -89.08977 | 20849 ft | 405 kts | 98° |
| 2026-04-22 00:07 | 34.87733 | -89.06681 | 21200 ft | 407 kts | 98° |
| 2026-04-22 00:07 | 34.87170 | -89.02120 | 21844 ft | 413 kts | 98° |
| 2026-04-22 00:08 | 34.86883 | -88.99778 | 22167 ft | 417 kts | 98° |
| 2026-04-22 00:08 | 34.86456 | -88.96267 | 22637 ft | 421 kts | 98° |
| 2026-04-22 00:08 | 34.86028 | -88.92720 | 23116 ft | 426 kts | 98° |
| 2026-04-22 00:08 | 34.85597 | -88.89132 | 23590 ft | 431 kts | 98° |
| 2026-04-22 00:09 | 34.85164 | -88.85501 | 24020 ft | 435 kts | 98° |
| 2026-04-22 00:09 | 34.84704 | -88.81850 | 24477 ft | 437 kts | 99° |
| 2026-04-22 00:09 | 34.84181 | -88.78205 | 24911 ft | 440 kts | 100° |
| 2026-04-22 00:09 | 34.83640 | -88.74530 | 25322 ft | 443 kts | 100° |
| 2026-04-22 00:10 | 34.83097 | -88.70820 | 25722 ft | 446 kts | 100° |
| 2026-04-22 00:10 | 34.82555 | -88.67095 | 26116 ft | 449 kts | 100° |
| 2026-04-22 00:10 | 34.82011 | -88.63337 | 26507 ft | 452 kts | 100° |
| 2026-04-22 00:10 | 34.81468 | -88.59555 | 26890 ft | 455 kts | 100° |
| 2026-04-22 00:11 | 34.80922 | -88.55748 | 27264 ft | 458 kts | 101° |
| 2026-04-22 00:11 | 34.80133 | -88.51987 | 27629 ft | 461 kts | 107° |
| 2026-04-22 00:11 | 34.79194 | -88.48241 | 28000 ft | 464 kts | 108° |
| 2026-04-22 00:11 | 34.78246 | -88.44481 | 28391 ft | 466 kts | 108° |
| 2026-04-22 00:12 | 34.77297 | -88.40700 | 28770 ft | 469 kts | 108° |
| 2026-04-22 00:12 | 34.76343 | -88.36884 | 29122 ft | 472 kts | 108° |
| 2026-04-22 00:12 | 34.75390 | -88.33049 | 29470 ft | 476 kts | 108° |
| 2026-04-22 00:12 | 34.74439 | -88.29201 | 29932 ft | 476 kts | 108° |
| 2026-04-22 00:13 | 34.73492 | -88.25349 | 30412 ft | 476 kts | 108° |
| 2026-04-22 00:13 | 34.72551 | -88.21487 | 30834 ft | 475 kts | 108° |
| 2026-04-22 00:13 | 34.71618 | -88.17640 | 31291 ft | 473 kts | 108° |
| 2026-04-22 00:13 | 34.70687 | -88.13827 | 31812 ft | 470 kts | 108° |
| 2026-04-22 00:14 | 34.69770 | -88.10074 | 32301 ft | 468 kts | 108° |
| 2026-04-22 00:14 | 34.68650 | -88.06376 | 32749 ft | 464 kts | 121° |
| 2026-04-22 00:14 | 34.66806 | -88.03208 | 33169 ft | 457 kts | 137° |
| 2026-04-22 00:14 | 34.64504 | -88.00577 | 33608 ft | 451 kts | 149° |
| 2026-04-22 00:15 | 34.61860 | -87.98583 | 34045 ft | 447 kts | 154° |
| 2026-04-22 00:15 | 34.59182 | -87.96664 | 34447 ft | 446 kts | 154° |
| 2026-04-22 00:15 | 34.56516 | -87.94754 | 34807 ft | 445 kts | 153° |
| 2026-04-22 00:15 | 34.54014 | -87.92520 | 35140 ft | 452 kts | 138° |
| 2026-04-22 00:16 | 34.51836 | -87.89729 | 35254 ft | 458 kts | 137° |
| 2026-04-22 00:16 | 34.47236 | -87.84200 | 35270 ft | 473 kts | 140° |
| 2026-04-22 00:17 | 34.42398 | -87.78615 | 35269 ft | 487 kts | 140° |
| 2026-04-22 00:17 | 34.37485 | -87.72845 | 35266 ft | 492 kts | 139° |
| 2026-04-22 00:17 | 34.35085 | -87.69970 | 35261 ft | 478 kts | 139° |
| 2026-04-22 00:18 | 34.32759 | -87.67171 | 35265 ft | 466 kts | 139° |
| 2026-04-22 00:18 | 34.30483 | -87.64442 | 35269 ft | 455 kts | 139° |
| 2026-04-22 00:18 | 34.28257 | -87.61786 | 35266 ft | 444 kts | 139° |
| 2026-04-22 00:18 | 34.26081 | -87.59202 | 35268 ft | 433 kts | 139° |
| 2026-04-22 00:19 | 34.23954 | -87.56681 | 35266 ft | 422 kts | 140° |
| 2026-04-22 00:19 | 34.19855 | -87.51840 | 35267 ft | 402 kts | 140° |
| 2026-04-22 00:20 | 34.15959 | -87.47241 | 35274 ft | 381 kts | 141° |
| 2026-04-22 00:20 | 34.12127 | -87.42743 | 35286 ft | 392 kts | 141° |
| 2026-04-22 00:21 | 34.08141 | -87.38072 | 35291 ft | 411 kts | 140° |
| 2026-04-22 00:21 | 34.03945 | -87.33146 | 35298 ft | 430 kts | 140° |
| 2026-04-22 00:22 | 33.99559 | -87.28003 | 35302 ft | 450 kts | 140° |
| 2026-04-22 00:22 | 33.94982 | -87.22623 | 35305 ft | 468 kts | 140° |
| 2026-04-22 00:23 | 33.90225 | -87.17046 | 35267 ft | 486 kts | 140° |
| 2026-04-22 00:23 | 33.85304 | -87.11290 | 35257 ft | 500 kts | 139° |
| 2026-04-22 00:24 | 33.80271 | -87.05398 | 35284 ft | 509 kts | 139° |
| 2026-04-22 00:24 | 33.75172 | -86.99453 | 35339 ft | 515 kts | 140° |
| 2026-04-22 00:24 | 33.72617 | -86.96479 | 35821 ft | 508 kts | 140° |
| 2026-04-22 00:25 | 33.70094 | -86.93537 | 36307 ft | 501 kts | 139° |
| 2026-04-22 00:25 | 33.64860 | -86.87967 | 36332 ft | 504 kts | 146° |
| 2026-04-22 00:26 | 33.59255 | -86.82802 | 36336 ft | 510 kts | 146° |
| 2026-04-22 00:26 | 33.56484 | -86.80232 | 36328 ft | 496 kts | 146° |
| 2026-04-22 00:26 | 33.53809 | -86.77736 | 36332 ft | 479 kts | 146° |
| 2026-04-22 00:26 | 33.51216 | -86.75317 | 36332 ft | 468 kts | 146° |
| 2026-04-22 00:27 | 33.48653 | -86.72940 | 36233 ft | 466 kts | 146° |
| 2026-04-22 00:27 | 33.46090 | -86.70579 | 35847 ft | 463 kts | 147° |
| 2026-04-22 00:27 | 33.43529 | -86.68234 | 35476 ft | 463 kts | 147° |
| 2026-04-22 00:27 | 33.40979 | -86.65898 | 35275 ft | 461 kts | 147° |
| 2026-04-22 00:28 | 33.38429 | -86.63557 | 35317 ft | 462 kts | 147° |
| 2026-04-22 00:28 | 33.33324 | -86.58862 | 35294 ft | 463 kts | 147° |
| 2026-04-22 00:29 | 33.28168 | -86.54122 | 35308 ft | 476 kts | 146° |
| 2026-04-22 00:29 | 33.22826 | -86.49229 | 35313 ft | 490 kts | 146° |
| 2026-04-22 00:30 | 33.17354 | -86.44219 | 35318 ft | 500 kts | 146° |
| 2026-04-22 00:30 | 33.11849 | -86.39175 | 35323 ft | 502 kts | 146° |
| 2026-04-22 00:31 | 33.06284 | -86.34094 | 35322 ft | 504 kts | 146° |
| 2026-04-22 00:31 | 33.00713 | -86.29011 | 35291 ft | 505 kts | 146° |
| 2026-04-22 00:32 | 32.95121 | -86.23927 | 35295 ft | 506 kts | 146° |
| 2026-04-22 00:32 | 32.89514 | -86.18843 | 35298 ft | 507 kts | 146° |
| 2026-04-22 00:33 | 32.83896 | -86.13757 | 35301 ft | 508 kts | 146° |
| 2026-04-22 00:33 | 32.78315 | -86.08696 | 35299 ft | 508 kts | 146° |
| 2026-04-22 00:34 | 32.72650 | -86.03564 | 35295 ft | 509 kts | 146° |
| 2026-04-22 00:34 | 32.67009 | -85.98470 | 35292 ft | 510 kts | 146° |
| 2026-04-22 00:35 | 32.61355 | -85.93387 | 35284 ft | 510 kts | 146° |
| 2026-04-22 00:35 | 32.55727 | -85.88335 | 35278 ft | 509 kts | 146° |
| 2026-04-22 00:36 | 32.50123 | -85.83306 | 35280 ft | 501 kts | 146° |
| 2026-04-22 00:36 | 32.44593 | -85.78346 | 35284 ft | 496 kts | 146° |
| 2026-04-22 00:37 | 32.39113 | -85.73438 | 35286 ft | 492 kts | 146° |
| 2026-04-22 00:37 | 32.33659 | -85.68558 | 35284 ft | 490 kts | 146° |
| 2026-04-22 00:38 | 32.28208 | -85.63688 | 35288 ft | 492 kts | 146° |
| 2026-04-22 00:38 | 32.22723 | -85.58802 | 35291 ft | 495 kts | 146° |
| 2026-04-22 00:39 | 32.17198 | -85.53889 | 35293 ft | 498 kts | 146° |
| 2026-04-22 00:39 | 32.11652 | -85.48967 | 35287 ft | 500 kts | 146° |
| 2026-04-22 00:40 | 32.06079 | -85.44027 | 35294 ft | 501 kts | 146° |
| 2026-04-22 00:40 | 32.00494 | -85.39091 | 35293 ft | 503 kts | 146° |
| 2026-04-22 00:41 | 31.94902 | -85.34140 | 35293 ft | 504 kts | 146° |
| 2026-04-22 00:41 | 31.89327 | -85.29211 | 35298 ft | 505 kts | 146° |
| 2026-04-22 00:42 | 31.83700 | -85.24246 | 35304 ft | 506 kts | 146° |
| 2026-04-22 00:42 | 31.78062 | -85.19296 | 35302 ft | 506 kts | 146° |
| 2026-04-22 00:43 | 31.72414 | -85.14341 | 35302 ft | 507 kts | 146° |
| 2026-04-22 00:43 | 31.66777 | -85.09388 | 35304 ft | 506 kts | 146° |
| 2026-04-22 00:44 | 31.61136 | -85.04441 | 35313 ft | 506 kts | 146° |
| 2026-04-22 00:44 | 31.55479 | -84.99497 | 35305 ft | 507 kts | 146° |
| 2026-04-22 00:45 | 31.49827 | -84.94544 | 35302 ft | 507 kts | 146° |
| 2026-04-22 00:45 | 31.44175 | -84.89588 | 35303 ft | 508 kts | 146° |
| 2026-04-22 00:46 | 31.38526 | -84.84634 | 35306 ft | 507 kts | 146° |
| 2026-04-22 00:46 | 31.32873 | -84.79677 | 35304 ft | 508 kts | 146° |
| 2026-04-22 00:47 | 31.27205 | -84.74705 | 35297 ft | 508 kts | 146° |
| 2026-04-22 00:47 | 31.21553 | -84.69744 | 35294 ft | 508 kts | 146° |
| 2026-04-22 00:48 | 31.15929 | -84.64816 | 35286 ft | 508 kts | 146° |
| 2026-04-22 00:48 | 31.10258 | -84.59895 | 35287 ft | 507 kts | 146° |
| 2026-04-22 00:49 | 31.04585 | -84.54978 | 35284 ft | 508 kts | 146° |
| 2026-04-22 00:49 | 30.98917 | -84.50064 | 35284 ft | 508 kts | 146° |
| 2026-04-22 00:50 | 30.93246 | -84.45148 | 35282 ft | 508 kts | 146° |
| 2026-04-22 00:50 | 30.87578 | -84.40232 | 35281 ft | 508 kts | 146° |
| 2026-04-22 00:51 | 30.81911 | -84.35313 | 35264 ft | 508 kts | 146° |
| 2026-04-22 00:51 | 30.76262 | -84.30381 | 35276 ft | 507 kts | 146° |
| 2026-04-22 00:52 | 30.71898 | -84.25838 | 35278 ft | 511 kts | 128° |
| 2026-04-22 00:52 | 30.69924 | -84.22393 | 35276 ft | 512 kts | 117° |
| 2026-04-22 00:52 | 30.68657 | -84.18542 | 35283 ft | 511 kts | 105° |
| 2026-04-22 00:53 | 30.66883 | -84.10538 | 35290 ft | 512 kts | 103° |
| 2026-04-22 00:53 | 30.65365 | -84.02486 | 35290 ft | 510 kts | 91° |
| 2026-04-22 00:54 | 30.65710 | -83.94298 | 35292 ft | 507 kts | 83° |
| 2026-04-22 00:54 | 30.66279 | -83.86134 | 35296 ft | 507 kts | 83° |
| 2026-04-22 00:55 | 30.66863 | -83.77952 | 35296 ft | 507 kts | 83° |
| 2026-04-22 00:55 | 30.67754 | -83.65702 | 35297 ft | 507 kts | 83° |
| 2026-04-22 00:56 | 30.68356 | -83.57537 | 35298 ft | 507 kts | 83° |
| 2026-04-22 00:56 | 30.68954 | -83.49371 | 35298 ft | 507 kts | 83° |
| 2026-04-22 00:57 | 30.69520 | -83.41198 | 35280 ft | 507 kts | 83° |
| 2026-04-22 00:57 | 30.70087 | -83.33089 | 35276 ft | 507 kts | 83° |
| 2026-04-22 00:58 | 30.70664 | -83.24931 | 35276 ft | 506 kts | 83° |
| 2026-04-22 00:58 | 30.71247 | -83.16777 | 35279 ft | 506 kts | 83° |
| 2026-04-22 00:59 | 30.71812 | -83.08614 | 35296 ft | 507 kts | 83° |
| 2026-04-22 00:59 | 30.72366 | -83.00441 | 35320 ft | 507 kts | 83° |
| 2026-04-22 01:00 | 30.72926 | -82.92271 | 35342 ft | 507 kts | 83° |
| 2026-04-22 01:00 | 30.73489 | -82.84096 | 35380 ft | 507 kts | 83° |
| 2026-04-22 01:01 | 30.74061 | -82.75914 | 35377 ft | 508 kts | 83° |
| 2026-04-22 01:01 | 30.74217 | -82.67720 | 35386 ft | 512 kts | 99° |
| 2026-04-22 01:02 | 30.73186 | -82.63758 | 35388 ft | 514 kts | 115° |
| 2026-04-22 01:02 | 30.71381 | -82.60187 | 35395 ft | 513 kts | 124° |
| 2026-04-22 01:02 | 30.66782 | -82.53922 | 35395 ft | 509 kts | 143° |
| 2026-04-22 01:03 | 30.61201 | -82.48853 | 35390 ft | 510 kts | 144° |
| 2026-04-22 01:03 | 30.55479 | -82.43994 | 35391 ft | 509 kts | 148° |
| 2026-04-22 01:04 | 30.49619 | -82.39395 | 35450 ft | 509 kts | 148° |
| 2026-04-22 01:04 | 30.43812 | -82.34768 | 35445 ft | 510 kts | 148° |
| 2026-04-22 01:05 | 30.38127 | -82.30712 | 35497 ft | 506 kts | 156° |
| 2026-04-22 01:05 | 30.31934 | -82.26770 | 35433 ft | 508 kts | 154° |
| 2026-04-22 01:06 | 30.25759 | -82.22804 | 35403 ft | 508 kts | 154° |
| 2026-04-22 01:06 | 30.19581 | -82.18837 | 35381 ft | 508 kts | 154° |
| 2026-04-22 01:07 | 30.13403 | -82.14873 | 35361 ft | 507 kts | 154° |
| 2026-04-22 01:07 | 30.07237 | -82.10920 | 35359 ft | 507 kts | 154° |
| 2026-04-22 01:08 | 30.01072 | -82.06969 | 35361 ft | 507 kts | 154° |
| 2026-04-22 01:08 | 29.94910 | -82.03020 | 35372 ft | 507 kts | 154° |
| 2026-04-22 01:09 | 29.88752 | -81.99073 | 35340 ft | 506 kts | 154° |
| 2026-04-22 01:09 | 29.82590 | -81.95145 | 35322 ft | 506 kts | 154° |
| 2026-04-22 01:10 | 29.76425 | -81.91231 | 35322 ft | 506 kts | 154° |
| 2026-04-22 01:10 | 29.70266 | -81.87322 | 35322 ft | 506 kts | 154° |
| 2026-04-22 01:11 | 29.63927 | -81.83965 | 35320 ft | 497 kts | 169° |
| 2026-04-22 01:11 | 29.60566 | -81.83034 | 35218 ft | 498 kts | 172° |
| 2026-04-22 01:11 | 29.57160 | -81.82513 | 35256 ft | 490 kts | 181° |
| 2026-04-22 01:12 | 29.50340 | -81.82176 | 35204 ft | 491 kts | 182° |
| 2026-04-22 01:12 | 29.43547 | -81.81879 | 35216 ft | 491 kts | 182° |
| 2026-04-22 01:13 | 29.36707 | -81.81580 | 35217 ft | 492 kts | 182° |
| 2026-04-22 01:13 | 29.33839 | -81.81499 | 34935 ft | 489 kts | 185° |
| 2026-04-22 01:13 | 29.30460 | -81.81488 | 34435 ft | 484 kts | 182° |
| 2026-04-22 01:14 | 29.27104 | -81.81376 | 33815 ft | 479 kts | 182° |
| 2026-04-22 01:14 | 29.23785 | -81.81247 | 33214 ft | 475 kts | 182° |
| 2026-04-22 01:14 | 29.20490 | -81.81107 | 32616 ft | 472 kts | 182° |
| 2026-04-22 01:14 | 29.17229 | -81.80957 | 32029 ft | 462 kts | 182° |
| 2026-04-22 01:15 | 29.14065 | -81.80795 | 31463 ft | 448 kts | 182° |
| 2026-04-22 01:15 | 29.11001 | -81.80620 | 30906 ft | 435 kts | 182° |
| 2026-04-22 01:15 | 29.08017 | -81.80433 | 30362 ft | 424 kts | 182° |
| 2026-04-22 01:15 | 29.05107 | -81.80238 | 29731 ft | 414 kts | 182° |
| 2026-04-22 01:16 | 29.02265 | -81.80044 | 29114 ft | 405 kts | 182° |
| 2026-04-22 01:16 | 28.99468 | -81.79854 | 28488 ft | 398 kts | 182° |
| 2026-04-22 01:16 | 28.96728 | -81.79676 | 27894 ft | 391 kts | 182° |
| 2026-04-22 01:16 | 28.94031 | -81.79504 | 27310 ft | 384 kts | 182° |
| 2026-04-22 01:17 | 28.91387 | -81.79335 | 26736 ft | 377 kts | 182° |
| 2026-04-22 01:17 | 28.88824 | -81.79170 | 26184 ft | 370 kts | 182° |
| 2026-04-22 01:17 | 28.86280 | -81.79005 | 25634 ft | 363 kts | 182° |
| 2026-04-22 01:17 | 28.83776 | -81.78773 | 25099 ft | 361 kts | 173° |
| 2026-04-22 01:18 | 28.81390 | -81.77794 | 24434 ft | 373 kts | 156° |
| 2026-04-22 01:18 | 28.79091 | -81.76320 | 23703 ft | 385 kts | 153° |
| 2026-04-22 01:18 | 28.76749 | -81.74767 | 22868 ft | 393 kts | 153° |
| 2026-04-22 01:18 | 28.74354 | -81.73199 | 22070 ft | 401 kts | 153° |
| 2026-04-22 01:19 | 28.72061 | -81.71720 | 21342 ft | 0 kts | 153° |
| 2026-04-22 01:19 | 28.70809 | -81.70979 | 16454 ft | 408 kts | 153° |
| 2026-04-22 01:19 | 28.68343 | -81.69497 | 16312 ft | 393 kts | 153° |
| 2026-04-22 01:19 | 28.65979 | -81.68089 | 16313 ft | 374 kts | 153° |
| 2026-04-22 01:20 | 28.63727 | -81.66752 | 16313 ft | 356 kts | 153° |
| 2026-04-22 01:20 | 28.61568 | -81.65466 | 16052 ft | 349 kts | 153° |
| 2026-04-22 01:20 | 28.59389 | -81.64239 | 15508 ft | 350 kts | 160° |
| 2026-04-22 01:20 | 28.57022 | -81.63627 | 14966 ft | 351 kts | 172° |
| 2026-04-22 01:21 | 28.54600 | -81.63254 | 14430 ft | 352 kts | 173° |
| 2026-04-22 01:21 | 28.52161 | -81.62912 | 13872 ft | 353 kts | 173° |
| 2026-04-22 01:21 | 28.49719 | -81.62584 | 13277 ft | 354 kts | 173° |
| 2026-04-22 01:21 | 28.47275 | -81.62262 | 12693 ft | 353 kts | 173° |
| 2026-04-22 01:22 | 28.44876 | -81.61949 | 12111 ft | 340 kts | 173° |
| 2026-04-22 01:22 | 28.42567 | -81.61635 | 11550 ft | 329 kts | 169° |
| 2026-04-22 01:22 | 28.40482 | -81.60740 | 11005 ft | 317 kts | 145° |
| 2026-04-22 01:22 | 28.38949 | -81.59019 | 10462 ft | 307 kts | 121° |
| 2026-04-22 01:23 | 28.38218 | -81.56798 | 9891 ft | 297 kts | 95° |
| 2026-04-22 01:23 | 28.38208 | -81.54486 | 9318 ft | 290 kts | 89° |
| 2026-04-22 01:23 | 28.37840 | -81.52263 | 8740 ft | 286 kts | 107° |
| 2026-04-22 01:23 | 28.37162 | -81.50154 | 8171 ft | 282 kts | 109° |
| 2026-04-22 01:24 | 28.36458 | -81.48092 | 7612 ft | 279 kts | 109° |
| 2026-04-22 01:24 | 28.35752 | -81.46052 | 7058 ft | 275 kts | 109° |
| 2026-04-22 01:24 | 28.35277 | -81.43993 | 6495 ft | 267 kts | 90° |
| 2026-04-22 01:24 | 28.35339 | -81.41937 | 5921 ft | 262 kts | 84° |
| 2026-04-22 01:25 | 28.35500 | -81.39919 | 5850 ft | 247 kts | 83° |
| 2026-04-22 01:25 | 28.35662 | -81.38026 | 5709 ft | 237 kts | 83° |
| 2026-04-22 01:25 | 28.35822 | -81.36150 | 5426 ft | 235 kts | 83° |
| 2026-04-22 01:25 | 28.36133 | -81.34346 | 5143 ft | 232 kts | 65° |
| 2026-04-22 01:26 | 28.37158 | -81.32971 | 4859 ft | 232 kts | 35° |
| 2026-04-22 01:26 | 28.38682 | -81.32326 | 4518 ft | 236 kts | 17° |
| 2026-04-22 01:26 | 28.40268 | -81.31969 | 4695 ft | 233 kts | 14° |
| 2026-04-22 01:26 | 28.41939 | -81.31621 | 5242 ft | 255 kts | 11° |
| 2026-04-22 01:27 | 28.43766 | -81.31738 | 5769 ft | 282 kts | 346° |
| 2026-04-22 01:27 | 28.45555 | -81.32866 | 6227 ft | 312 kts | 321° |
| 2026-04-22 01:27 | 28.46979 | -81.34944 | 6327 ft | 351 kts | 298° |
| 2026-04-22 01:27 | 28.47695 | -81.37689 | 6341 ft | 386 kts | 278° |
| 2026-04-22 01:28 | 28.47558 | -81.40835 | 6651 ft | 404 kts | 261° |
| 2026-04-22 01:28 | 28.47081 | -81.43925 | 7800 ft | 399 kts | 261° |
| 2026-04-22 01:28 | 28.46272 | -81.47021 | 8243 ft | 405 kts | 250° |
| 2026-04-22 01:28 | 28.45262 | -81.49821 | 8759 ft | 368 kts | 241° |
| 2026-04-22 01:29 | 28.43603 | -81.51896 | 8733 ft | 348 kts | 213° |
| 2026-04-22 01:29 | 28.41411 | -81.52791 | 8724 ft | 328 kts | 183° |
| 2026-04-22 01:29 | 28.39242 | -81.52436 | 8704 ft | 309 kts | 162° |
| 2026-04-22 01:29 | 28.37156 | -81.51765 | 8080 ft | 315 kts | 162° |
| 2026-04-22 01:30 | 28.35019 | -81.51212 | 7764 ft | 312 kts | 167° |
| 2026-04-22 01:30 | 28.32928 | -81.50626 | 7403 ft | 308 kts | 161° |
| 2026-04-22 01:30 | 28.30932 | -81.49848 | 7016 ft | 297 kts | 157° |
| 2026-04-22 01:30 | 28.29053 | -81.48983 | 6626 ft | 284 kts | 153° |
| 2026-04-22 01:31 | 28.27471 | -81.47751 | 6307 ft | 272 kts | 129° |
| 2026-04-22 01:31 | 28.26547 | -81.45943 | 5991 ft | 263 kts | 103° |
| 2026-04-22 01:31 | 28.26248 | -81.43950 | 5685 ft | 257 kts | 95° |
| 2026-04-22 01:31 | 28.26100 | -81.41982 | 5314 ft | 242 kts | 91° |
| 2026-04-22 01:32 | 28.26026 | -81.40116 | 4757 ft | 237 kts | 91° |
| 2026-04-22 01:32 | 28.25977 | -81.38227 | 4288 ft | 237 kts | 90° |
| 2026-04-22 01:32 | 28.25954 | -81.36452 | 3983 ft | 213 kts | 90° |
| 2026-04-22 01:32 | 28.26163 | -81.34871 | 3625 ft | 197 kts | 69° |
| 2026-04-22 01:33 | 28.26940 | -81.33677 | 3243 ft | 185 kts | 43° |
| 2026-04-22 01:33 | 28.28081 | -81.33071 | 2885 ft | 178 kts | 22° |
| 2026-04-22 01:33 | 28.29257 | -81.32798 | 2607 ft | 165 kts | 11° |
| 2026-04-22 01:33 | 28.30323 | -81.32789 | 2468 ft | 143 kts | 7° |
| 2026-04-22 01:34 | 28.31290 | -81.32813 | 2172 ft | 137 kts | 7° |
| 2026-04-22 01:34 | 28.32322 | -81.32817 | 1961 ft | 153 kts | 9° |
| 2026-04-22 01:34 | 28.33403 | -81.32801 | 1810 ft | 156 kts | 7° |
| 2026-04-22 01:34 | 28.34468 | -81.32732 | 1709 ft | 154 kts | 13° |
| 2026-04-22 01:35 | 28.35513 | -81.32643 | 1518 ft | 144 kts | 10° |
| 2026-04-22 01:35 | 28.36513 | -81.32663 | 1281 ft | 158 kts | 5° |
| 2026-04-22 01:35 | 28.37663 | -81.32681 | 1220 ft | 159 kts | 7° |
| 2026-04-22 01:35 | 28.38722 | -81.32667 | 852 ft | 149 kts | 5° |
| 2026-04-22 01:36 | 28.39789 | -81.32648 | 600 ft | 157 kts | 3° |
| 2026-04-22 01:36 | 28.40825 | -81.32683 | 312 ft | 143 kts | 1° |
| 2026-04-22 01:36 | 28.41755 | -81.32673 | 132 ft | 127 kts | 5° |
| 2026-04-22 01:36 | 28.42563 | -81.32670 | 103 ft | 97 kts | 359° |
| 2026-04-22 01:37 | 28.43097 | -81.32666 | 107 ft | 69 kts | 0° |
| 2026-04-22 01:37 | 28.43551 | -81.32672 | 105 ft | 48 kts | 358° |
| 2026-04-22 01:37 | 28.43703 | -81.32599 | 105 ft | 18 kts | 47° |
| 2026-04-22 01:37 | 28.43784 | -81.32472 | 105 ft | 22 kts | 59° |
| 2026-04-22 01:38 | 28.43837 | -81.32373 | 107 ft | 23 kts | 59° |
| 2026-04-22 01:38 | 28.43919 | -81.32218 | 109 ft | 24 kts | 59° |
| 2026-04-22 01:38 | 28.43984 | -81.32045 | 109 ft | 24 kts | 102° |
| 2026-04-22 01:38 | 28.43845 | -81.31999 | 109 ft | 23 kts | 180° |
| 2026-04-22 01:39 | 28.43669 | -81.32002 | 107 ft | 27 kts | 180° |
| 2026-04-22 01:39 | 28.43474 | -81.32000 | 103 ft | 25 kts | 183° |
| 2026-04-22 01:39 | 28.43401 | -81.31945 | 101 ft | 9 kts | 77° |
| 2026-04-22 01:39 | 28.43387 | -81.31851 | 101 ft | 16 kts | 134° |
| 2026-04-22 01:40 | 28.43274 | -81.31842 | 101 ft | 18 kts | 179° |
| 2026-04-22 01:40 | 28.43245 | -81.31800 | 102 ft | 8 kts | 73° |
| 2026-04-22 01:40 | 28.43285 | -81.31710 | 102 ft | 15 kts | 61° |
| 2026-04-22 01:40 | 28.43314 | -81.31663 | 101 ft | 5 kts | 52° |
| 2026-04-22 01:41 | 28.43338 | -81.31628 | 102 ft | 1 kts | 52° |
| 2026-04-22 01:41 | 28.43346 | -81.31615 | 101 ft | 0 kts | 52° |
| 2026-04-22 01:41 | 28.43348 | -81.31613 | 102 ft | 1 kts | 52° |
| 2026-04-22 01:41 | 28.43349 | -81.31612 | 102 ft | 0 kts | 52° |